TimeMST,TemperatureF,Dew PointF,Humidity,Sea Level PressureIn,VisibilityMPH,Wind Direction,Wind SpeedMPH,Gust SpeedMPH,PrecipitationIn,Events,Conditions,WindDirDegrees,DateUTC
12:57 AM,55.9,27.0,33,30.22,10.0,North,8.1,-,N/A,,Clear,350,2013-12-24 07:57:00
1:57 AM,53.1,28.9,40,30.22,10.0,WNW,4.6,-,N/A,,Clear,300,2013-12-24 08:57:00
2:57 AM,53.1,28.9,40,30.22,10.0,NNW,4.6,-,N/A,,Clear,330,2013-12-24 09:57:00
3:57 AM,55.0,28.9,37,30.20,10.0,NNW,5.8,-,N/A,,Clear,340,2013-12-24 10:57:00
4:57 AM,55.9,28.0,34,30.19,10.0,North,6.9,-,N/A,,Clear,10,2013-12-24 11:57:00
5:57 AM,55.9,28.9,36,30.20,10.0,NNW,8.1,-,N/A,,Clear,330,2013-12-24 12:57:00
6:57 AM,51.1,30.0,44,30.21,10.0,Calm,Calm,-,N/A,,Clear,0,2013-12-24 13:57:00
7:57 AM,50.0,30.9,48,30.21,10.0,Calm,Calm,-,N/A,,Clear,0,2013-12-24 14:57:00
8:57 AM,55.0,32.0,42,30.22,10.0,Calm,Calm,-,N/A,,Clear,0,2013-12-24 15:57:00
9:57 AM,62.1,30.9,31,30.24,10.0,North,6.9,-,N/A,,Clear,360,2013-12-24 16:57:00
10:57 AM,66.9,33.1,28,30.23,10.0,North,5.8,-,N/A,,Clear,10,2013-12-24 17:57:00
11:57 AM,70.0,32.0,25,30.21,10.0,North,8.1,-,N/A,,Clear,10,2013-12-24 18:57:00
12:57 PM,70.0,28.9,22,30.18,10.0,North,16.1,-,N/A,,Clear,350,2013-12-24 19:57:00
1:57 PM,72.0,28.9,20,30.15,10.0,North,13.8,-,N/A,,Clear,10,2013-12-24 20:57:00
2:57 PM,73.0,28.9,20,30.13,10.0,North,15.0,-,N/A,,Clear,360,2013-12-24 21:57:00
3:57 PM,73.0,28.9,20,30.12,10.0,North,11.5,-,N/A,,Clear,360,2013-12-24 22:57:00
4:57 PM,71.1,30.9,23,30.12,10.0,North,8.1,-,N/A,,Clear,360,2013-12-24 23:57:00
5:57 PM,66.9,30.9,26,30.12,10.0,North,6.9,-,N/A,,Clear,350,2013-12-25 00:57:00
6:57 PM,64.9,30.9,28,30.12,10.0,NNW,6.9,-,N/A,,Clear,340,2013-12-25 01:57:00
7:57 PM,63.0,32.0,31,30.13,10.0,NNW,3.5,-,N/A,,Clear,330,2013-12-25 02:57:00
8:57 PM,63.0,32.0,31,30.14,10.0,NNW,5.8,-,N/A,,Clear,330,2013-12-25 03:57:00
9:57 PM,57.9,33.1,39,30.14,10.0,Calm,Calm,-,N/A,,Clear,0,2013-12-25 04:57:00
10:57 PM,55.9,34.0,44,30.16,10.0,Calm,Calm,-,N/A,,Clear,0,2013-12-25 05:57:00
11:57 PM,53.1,34.0,48,30.16,10.0,WNW,5.8,-,N/A,,Clear,300,2013-12-25 06:57:00